Time;durP1;ratioP1;P1;durP2;ratioP2;P2;SDS_P1;SDS_P2;PMS_P1;PMS_P2;Temp;Humidity;BMP_temperature;BMP_pressure;BME280_temperature;BME280_humidity;BME280_pressure;Samples;Min_cycle;Max_cycle;Signal;HPM_P1;HPM_P2
2024/02/03 00:00:00;;;;;;;;;;;179.40;2252.80;;;;;;5092969;28;19911;-82
2024/02/03 00:02:26;;;;;;;;;;;179.50;2252.80;;;;;;5084063;28;19903;-82
2024/02/03 00:04:52;;;;;;;;;;;179.50;2252.80;;;;;;5084314;28;19908;-82
2024/02/03 00:07:17;;;;;;;;;;;179.60;2252.80;;;;;;5093185;28;19995;-82
2024/02/03 00:09:43;;;;;;;;;;;179.50;2252.80;;;;;;5088742;28;19914;-82
2024/02/03 00:12:09;;;;;;;;;;;179.60;2252.80;;;;;;5085369;28;19912;-82
2024/02/03 00:14:35;;;;;;;;;;;179.50;2252.80;;;;;;5084790;28;19961;-82
2024/02/03 00:17:02;;;;;;;;;;;179.40;2252.80;;;;;;5089291;28;19980;-82
2024/02/03 00:19:27;;;;;;;;;;;179.40;2252.80;;;;;;5094914;28;19908;-82
2024/02/03 00:21:53;;;;;;;;;;;179.30;2252.80;;;;;;5085849;28;20472;-82
2024/02/03 00:24:19;;;;;;;;;;;179.40;2252.80;;;;;;5085406;28;19950;-82
2024/02/03 00:26:44;;;;;;;;;;;179.40;2252.80;;;;;;5093438;28;19908;-82
2024/02/03 00:29:10;;;;;;;;;;;179.40;2252.80;;;;;;5091896;28;19993;-82
2024/02/03 00:31:35;;;;;;;;;;;179.40;2252.80;;;;;;5089324;28;20378;-83
2024/02/03 00:34:01;;;;;;;;;;;179.40;2252.80;;;;;;5090833;28;19915;-82
2024/02/03 00:36:27;;;;;;;;;;;179.50;2252.80;;;;;;5090690;28;20349;-82
2024/02/03 00:38:52;;;;;;;;;;;179.50;2252.80;;;;;;5093747;28;20011;-82
2024/02/03 00:41:18;;;;;;;;;;;179.60;2252.80;;;;;;5093809;28;19908;-83
2024/02/03 00:43:44;;;;;;;;;;;179.90;2252.80;;;;;;5089678;28;19911;-83
2024/02/03 00:46:12;;;;;;;;;;;179.50;2252.80;;;;;;5086692;28;19917;-82
2024/02/03 00:48:38;;;;;;;;;;;179.60;2252.80;;;;;;5114091;28;19966;-82
2024/02/03 00:51:11;;;;;;;;;;;179.50;2252.80;;;;;;5096945;28;20364;-82
2024/02/03 00:53:37;;;;;;;;;;;179.50;2252.80;;;;;;5093912;28;19954;-82
2024/02/03 00:56:03;;;;;;;;;;;179.40;2252.80;;;;;;5114333;28;19907;-82
2024/02/03 00:58:29;;;;;;;;;;;179.60;2252.80;;;;;;5116147;28;19994;-82
2024/02/03 01:00:55;;;;;;;;;;;179.50;2252.80;;;;;;5100383;28;19969;-82
2024/02/03 01:03:20;;;;;;;;;;;179.30;2252.80;;;;;;5100305;28;20000;-81
2024/02/03 01:05:47;;;;;;;;;;;179.30;2252.80;;;;;;5100054;28;19910;-82
2024/02/03 01:08:13;;;;;;;;;;;179.40;2252.80;;;;;;5100429;28;20280;-82
2024/02/03 01:10:39;;;;;;;;;;;179.40;2252.80;;;;;;5099972;28;19912;-82
2024/02/03 01:13:04;;;;;;;;;;;179.40;2252.80;;;;;;5118307;28;20007;-82
2024/02/03 01:15:30;;;;;;;;;;;179.60;2252.80;;;;;;5117499;28;19908;-81
2024/02/03 01:17:56;;;;;;;;;;;179.60;2252.80;;;;;;5118058;28;19908;-82
2024/02/03 01:20:21;;;;;;;;;;;179.60;2252.80;;;;;;5099975;28;19911;-81
2024/02/03 01:22:47;;;;;;;;;;;179.40;2252.80;;;;;;5100120;28;19904;-82
2024/02/03 01:25:13;;;;;;;;;;;179.50;2252.80;;;;;;5099834;28;20280;-81
2024/02/03 01:27:38;;;;;;;;;;;179.40;2252.80;;;;;;5116997;28;19950;-82
2024/02/03 01:30:04;;;;;;;;;;;179.40;2252.80;;;;;;5117480;28;19908;-81
2024/02/03 01:32:30;;;;;;;;;;;179.20;2252.80;;;;;;5116867;28;19932;-81
2024/02/03 01:34:56;;;;;;;;;;;179.40;2252.80;;;;;;5117651;28;19999;-82
2024/02/03 01:37:21;;;;;;;;;;;179.40;2252.80;;;;;;5117459;28;19987;-81
2024/02/03 01:39:47;;;;;;;;;;;179.30;2252.80;;;;;;5099323;28;20352;-82
2024/02/03 01:42:12;;;;;;;;;;;179.30;2252.80;;;;;;5103781;28;19908;-82
2024/02/03 01:44:38;;;;;;;;;;;179.30;2252.80;;;;;;5115132;28;19942;-82
2024/02/03 01:47:04;;;;;;;;;;;179.30;2252.80;;;;;;5099317;28;20003;-81
2024/02/03 01:49:31;;;;;;;;;;;179.20;2252.80;;;;;;5115695;28;19904;-82
2024/02/03 01:51:57;;;;;;;;;;;154.50;2252.80;;;;;;5116498;28;19918;-82
2024/02/03 01:54:23;;;;;;;;;;;179.20;2252.80;;;;;;5100789;28;20364;-81
2024/02/03 01:56:49;;;;;;;;;;;154.50;2252.80;;;;;;5099340;28;20327;-81
2024/02/03 01:59:15;;;;;;;;;;;154.50;2252.80;;;;;;5099259;28;19908;-82
2024/02/03 02:01:41;;;;;;;;;;;154.50;2252.80;;;;;;5099646;28;19958;-82
2024/02/03 02:04:06;;;;;;;;;;;154.40;2252.80;;;;;;5099405;28;19903;-82
2024/02/03 02:06:32;;;;;;;;;;;154.50;2252.80;;;;;;5116763;28;19904;-82
2024/02/03 02:08:57;;;;;;;;;;;154.50;2252.80;;;;;;5097977;28;19910;-81
2024/02/03 02:11:24;;;;;;;;;;;179.30;2252.80;;;;;;5116507;28;19911;-81
2024/02/03 02:13:49;;;;;;;;;;;179.30;2252.80;;;;;;5099049;28;19961;-81
2024/02/03 02:16:15;;;;;;;;;;;179.40;2252.80;;;;;;5099038;28;19912;-82
2024/02/03 02:18:41;;;;;;;;;;;179.40;2252.80;;;;;;5098911;28;19904;-82
2024/02/03 02:21:07;;;;;;;;;;;179.30;2252.80;;;;;;5098371;28;19904;-81
2024/02/03 02:23:32;;;;;;;;;;;179.30;2252.80;;;;;;5099173;28;19904;-82
2024/02/03 02:25:58;;;;;;;;;;;179.30;2252.80;;;;;;5098665;28;19903;-82
2024/02/03 02:28:24;;;;;;;;;;;179.30;2252.80;;;;;;5095278;28;19911;-82
2024/02/03 02:30:50;;;;;;;;;;;179.30;2252.80;;;;;;5098593;28;19912;-81
2024/02/03 02:33:15;;;;;;;;;;;179.30;2252.80;;;;;;5098755;28;19956;-81
2024/02/03 02:35:41;;;;;;;;;;;179.40;2252.80;;;;;;5098503;28;19903;-82
2024/02/03 02:38:07;;;;;;;;;;;179.40;2252.80;;;;;;5116358;28;19907;-81
2024/02/03 02:40:33;;;;;;;;;;;179.30;2252.80;;;;;;5098698;28;19903;-81
2024/02/03 02:42:59;;;;;;;;;;;154.50;2252.80;;;;;;5098291;28;19951;-81
2024/02/03 02:45:24;;;;;;;;;;;154.50;2252.80;;;;;;5116233;28;19994;-81
2024/02/03 02:47:50;;;;;;;;;;;179.20;2252.80;;;;;;5098607;28;19936;-82
2024/02/03 02:50:16;;;;;;;;;;;179.20;2252.80;;;;;;5115419;28;19965;-82
2024/02/03 02:52:41;;;;;;;;;;;179.40;2252.80;;;;;;5097582;28;19922;-81
2024/02/03 02:55:07;;;;;;;;;;;179.50;2252.80;;;;;;5097514;28;20318;-82
2024/02/03 02:57:33;;;;;;;;;;;179.60;2252.80;;;;;;5097516;28;19946;-81
2024/02/03 02:59:58;;;;;;;;;;;179.60;2252.80;;;;;;5104944;28;19904;-81
2024/02/03 03:02:24;;;;;;;;;;;179.70;2252.80;;;;;;5095751;28;19904;-82
2024/02/03 03:04:49;;;;;;;;;;;179.60;2252.80;;;;;;5116075;28;19904;-82
2024/02/03 03:07:16;;;;;;;;;;;179.50;2252.80;;;;;;5097519;28;19946;-82
2024/02/03 03:09:42;;;;;;;;;;;179.40;2252.80;;;;;;5097876;28;20007;-81
2024/02/03 03:12:11;;;;;;;;;;;154.50;2252.80;;;;;;5115681;28;19934;-81
2024/02/03 03:14:37;;;;;;;;;;;154.40;2252.80;;;;;;5105196;28;19908;-82
2024/02/03 03:17:03;;;;;;;;;;;154.10;2252.80;;;;;;5077467;28;20022;-81
2024/02/03 03:19:28;;;;;;;;;;;154.20;2252.80;;;;;;5095497;28;19907;-82
2024/02/03 03:21:54;;;;;;;;;;;154.00;2252.80;;;;;;5094959;28;19908;-82
2024/02/03 03:24:20;;;;;;;;;;;153.90;2252.80;;;;;;5077422;28;20365;-81
2024/02/03 03:26:45;;;;;;;;;;;154.00;2252.80;;;;;;5095034;28;19904;-81
2024/02/03 03:29:13;;;;;;;;;;;154.10;2252.80;;;;;;5095080;28;20312;-81
2024/02/03 03:31:39;;;;;;;;;;;154.40;2252.80;;;;;;5094090;28;19912;-82
2024/02/03 03:34:05;;;;;;;;;;;154.20;2252.80;;;;;;5077017;28;20357;-81
2024/02/03 03:36:31;;;;;;;;;;;154.20;2252.80;;;;;;5095225;28;20255;-82
2024/02/03 03:38:56;;;;;;;;;;;154.10;2252.80;;;;;;5077343;28;19949;-81
2024/02/03 03:41:22;;;;;;;;;;;154.20;2252.80;;;;;;5071236;28;19905;-82
2024/02/03 03:43:49;;;;;;;;;;;154.30;2252.80;;;;;;5068851;28;19932;-82
2024/02/03 03:46:15;;;;;;;;;;;154.50;2252.80;;;;;;5077111;28;19912;-81
2024/02/03 03:48:40;;;;;;;;;;;154.40;2252.80;;;;;;5077086;28;19904;-82
2024/02/03 03:51:06;;;;;;;;;;;154.50;2252.80;;;;;;5075455;28;19965;-82
2024/02/03 03:53:32;;;;;;;;;;;154.50;2252.80;;;;;;5095152;28;19916;-81
2024/02/03 03:55:58;;;;;;;;;;;179.20;2252.80;;;;;;5113717;28;19911;-81
2024/02/03 03:58:23;;;;;;;;;;;179.40;2252.80;;;;;;5114103;28;19904;-82
2024/02/03 04:00:49;;;;;;;;;;;179.50;2252.80;;;;;;5113684;28;19969;-81
2024/02/03 04:03:14;;;;;;;;;;;179.40;2252.80;;;;;;5113424;28;19907;-82
2024/02/03 04:05:40;;;;;;;;;;;179.60;2252.80;;;;;;5109175;28;19954;-81
2024/02/03 04:08:06;;;;;;;;;;;179.50;2252.80;;;;;;5105559;28;19907;-82
2024/02/03 04:10:32;;;;;;;;;;;179.40;2252.80;;;;;;5113594;28;19999;-81
2024/02/03 04:12:57;;;;;;;;;;;179.40;2252.80;;;;;;5101659;28;19912;-82
2024/02/03 04:15:23;;;;;;;;;;;179.40;2252.80;;;;;;5094244;28;19908;-82
2024/02/03 04:17:50;;;;;;;;;;;179.40;2252.80;;;;;;5096646;28;19912;-82
2024/02/03 04:20:16;;;;;;;;;;;179.40;2252.80;;;;;;5091887;28;19908;-82
2024/02/03 04:22:41;;;;;;;;;;;179.30;2252.80;;;;;;5105093;28;19949;-82
2024/02/03 04:25:07;;;;;;;;;;;179.40;2252.80;;;;;;5113105;28;19990;-82
2024/02/03 04:27:33;;;;;;;;;;;179.50;2252.80;;;;;;5114492;28;20272;-82
2024/02/03 04:29:59;;;;;;;;;;;179.40;2252.80;;;;;;5113229;28;19904;-81
2024/02/03 04:32:25;;;;;;;;;;;179.50;2252.80;;;;;;5113911;28;19938;-82
2024/02/03 04:34:50;;;;;;;;;;;179.40;2252.80;;;;;;5117924;28;20365;-82
2024/02/03 04:37:16;;;;;;;;;;;179.40;2252.80;;;;;;5117892;28;19907;-81
2024/02/03 04:39:42;;;;;;;;;;;179.40;2252.80;;;;;;5116200;28;19903;-82
2024/02/03 04:42:07;;;;;;;;;;;179.40;2252.80;;;;;;5117151;28;19904;-82
2024/02/03 04:44:33;;;;;;;;;;;179.40;2252.80;;;;;;5116940;28;19908;-81
2024/02/03 04:46:59;;;;;;;;;;;179.30;2252.80;;;;;;5117765;28;19943;-82
2024/02/03 04:49:24;;;;;;;;;;;179.40;2252.80;;;;;;5117865;28;19907;-82
2024/02/03 04:51:51;;;;;;;;;;;179.40;2252.80;;;;;;5117518;28;20288;-82
2024/02/03 04:54:17;;;;;;;;;;;179.40;2252.80;;;;;;5117401;27;19952;-81
2024/02/03 04:56:43;;;;;;;;;;;179.40;2252.80;;;;;;5139194;27;19972;-81
2024/02/03 04:59:08;;;;;;;;;;;179.40;2252.80;;;;;;5120664;27;19903;-81
2024/02/03 05:01:36;;;;;;;;;;;179.50;2252.80;;;;;;5119984;27;19978;-81
2024/02/03 05:04:02;;;;;;;;;;;179.40;2252.80;;;;;;5120814;27;19960;-82
2024/02/03 05:06:27;;;;;;;;;;;179.30;2252.80;;;;;;5138739;27;19907;-81
2024/02/03 05:08:58;;;;;;;;;;;154.50;2252.80;;;;;;5138416;27;20291;-82
2024/02/03 05:11:24;;;;;;;;;;;154.50;2252.80;;;;;;5138605;27;19911;-82
2024/02/03 05:13:50;;;;;;;;;;;179.20;2252.80;;;;;;5120606;27;19930;-82
2024/02/03 05:16:15;;;;;;;;;;;154.50;2252.80;;;;;;5117386;28;20280;-81
2024/02/03 05:18:41;;;;;;;;;;;154.50;2252.80;;;;;;5120613;27;19904;-82
2024/02/03 05:21:06;;;;;;;;;;;154.30;2252.80;;;;;;5120234;27;20409;-82
2024/02/03 05:23:32;;;;;;;;;;;154.20;2252.80;;;;;;5118813;27;19904;-82
2024/02/03 05:25:57;;;;;;;;;;;154.00;2252.80;;;;;;5130836;27;19968;-82
2024/02/03 05:28:23;;;;;;;;;;;154.00;2252.80;;;;;;5138332;27;19991;-81
2024/02/03 05:30:48;;;;;;;;;;;154.00;2252.80;;;;;;5120098;27;20365;-81
2024/02/03 05:33:14;;;;;;;;;;;154.00;2252.80;;;;;;5119987;27;19904;-82
2024/02/03 05:35:40;;;;;;;;;;;154.00;2252.80;;;;;;5138348;27;19910;-81
2024/02/03 05:38:05;;;;;;;;;;;153.90;2252.80;;;;;;5132183;27;20281;-82
2024/02/03 05:40:31;;;;;;;;;;;153.90;2252.80;;;;;;5120252;27;19908;-82
2024/02/03 05:42:56;;;;;;;;;;;154.00;2252.80;;;;;;5116364;27;19907;-82
2024/02/03 05:45:22;;;;;;;;;;;154.10;2252.80;;;;;;5132778;27;19939;-80
2024/02/03 05:47:49;;;;;;;;;;;154.10;2252.80;;;;;;5126267;27;19915;-81
2024/02/03 05:50:14;;;;;;;;;;;154.10;2252.80;;;;;;5108266;27;20040;-81
2024/02/03 05:52:40;;;;;;;;;;;154.00;2252.80;;;;;;5111802;27;19993;-81
2024/02/03 05:55:06;;;;;;;;;;;154.00;2252.80;;;;;;5119854;27;20006;-83
2024/02/03 05:57:31;;;;;;;;;;;154.00;2252.80;;;;;;5128774;27;19907;-84
2024/02/03 05:59:57;;;;;;;;;;;153.90;2252.80;;;;;;5135819;27;19908;-84
2024/02/03 06:02:23;;;;;;;;;;;153.80;2252.80;;;;;;5129526;27;20039;-84
2024/02/03 06:04:48;;;;;;;;;;;153.80;2252.80;;;;;;5100912;28;20345;-83
2024/02/03 06:07:15;;;;;;;;;;;153.90;2252.80;;;;;;5113040;27;19948;-84
2024/02/03 06:09:41;;;;;;;;;;;153.80;2252.80;;;;;;5117701;27;19903;-84
2024/02/03 06:12:07;;;;;;;;;;;153.80;2252.80;;;;;;5113850;27;20284;-84
2024/02/03 06:14:33;;;;;;;;;;;153.80;2252.80;;;;;;5103043;28;19908;-84
2024/02/03 06:16:59;;;;;;;;;;;153.70;2252.80;;;;;;5107127;27;19912;-84
2024/02/03 06:19:24;;;;;;;;;;;153.70;2252.80;;;;;;5111544;27;19915;-84
2024/02/03 06:21:50;;;;;;;;;;;153.60;2252.80;;;;;;5108750;27;19907;-81
2024/02/03 06:24:15;;;;;;;;;;;153.60;2252.80;;;;;;5111418;28;20433;-83
2024/02/03 06:26:41;;;;;;;;;;;153.60;2252.80;;;;;;5101366;28;19908;-84
2024/02/03 06:29:10;;;;;;;;;;;153.80;2252.80;;;;;;5102659;28;19908;-84
2024/02/03 06:31:36;;;;;;;;;;;153.80;2252.80;;;;;;5111178;27;19926;-83
2024/02/03 06:34:02;;;;;;;;;;;153.90;2252.80;;;;;;5112897;27;19911;-83
2024/02/03 06:36:27;;;;;;;;;;;153.80;2252.80;;;;;;5114315;27;20276;-84
2024/02/03 06:38:53;;;;;;;;;;;153.70;2252.80;;;;;;5113268;27;19903;-81
2024/02/03 06:41:18;;;;;;;;;;;153.90;2252.80;;;;;;5108168;27;19904;-81
2024/02/03 06:43:44;;;;;;;;;;;154.00;2252.80;;;;;;5101217;28;19915;-80
2024/02/03 06:46:12;;;;;;;;;;;153.90;2252.80;;;;;;5103421;28;19915;-80
2024/02/03 06:48:38;;;;;;;;;;;154.10;2252.80;;;;;;5130344;27;19950;-81
2024/02/03 06:51:04;;;;;;;;;;;154.30;2252.80;;;;;;5093196;28;19967;-85
2024/02/03 06:53:29;;;;;;;;;;;154.30;2252.80;;;;;;5103121;27;19919;-88
2024/02/03 06:55:56;;;;;;;;;;;154.20;2252.80;;;;;;5113834;27;19971;-88
2024/02/03 06:58:22;;;;;;;;;;;154.40;2252.80;;;;;;5100413;27;20329;-86
2024/02/03 07:00:48;;;;;;;;;;;154.40;2252.80;;;;;;5116545;27;19958;-84
2024/02/03 07:03:13;;;;;;;;;;;154.40;2252.80;;;;;;5106432;27;19911;-84
2024/02/03 07:05:40;;;;;;;;;;;154.50;2252.80;;;;;;5130052;27;20292;-87
2024/02/03 07:08:06;;;;;;;;;;;179.20;2252.80;;;;;;5123967;27;19911;-81
2024/02/03 07:10:32;;;;;;;;;;;179.20;2252.80;;;;;;5126347;27;19908;-83
2024/02/03 07:12:59;;;;;;;;;;;179.40;2252.80;;;;;;5113608;27;19918;-80
2024/02/03 07:15:28;;;;;;;;;;;179.40;2252.80;;;;;;5130632;27;20052;-86
2024/02/03 07:17:53;;;;;;;;;;;179.40;2252.80;;;;;;5115465;27;20420;-78
2024/02/03 07:20:19;;;;;;;;;;;179.40;2252.80;;;;;;5116808;27;19985;-82
2024/02/03 07:22:44;;;;;;;;;;;179.40;2252.80;;;;;;5107130;27;19976;-79
2024/02/03 07:25:12;;;;;;;;;;;179.60;2252.80;;;;;;5101432;28;19958;-85
2024/02/03 07:27:37;;;;;;;;;;;179.70;2252.80;;;;;;5121762;27;19919;-84
2024/02/03 07:30:03;;;;;;;;;;;179.60;2252.80;;;;;;5109064;28;19904;-83
2024/02/03 07:32:29;;;;;;;;;;;179.80;2252.80;;;;;;5108926;27;19922;-82
2024/02/03 07:34:55;;;;;;;;;;;179.90;2252.80;;;;;;5119050;27;19908;-80
2024/02/03 07:37:21;;;;;;;;;;;179.90;2252.80;;;;;;5109473;27;19914;-82
2024/02/03 07:39:46;;;;;;;;;;;179.80;2252.80;;;;;;5104486;27;19903;-85
2024/02/03 07:42:12;;;;;;;;;;;180.10;2252.80;;;;;;5115044;27;19903;-81
2024/02/03 07:44:38;;;;;;;;;;;180.10;2252.80;;;;;;5103885;27;19987;-81
2024/02/03 07:47:03;;;;;;;;;;;204.80;2252.80;;;;;;5112663;27;20276;-80
2024/02/03 07:49:29;;;;;;;;;;;204.90;2252.80;;;;;;5114957;27;19912;-80
2024/02/03 07:51:55;;;;;;;;;;;205.00;2252.80;;;;;;5116353;27;19919;-80
2024/02/03 07:54:20;;;;;;;;;;;205.00;2252.80;;;;;;5109670;27;19922;-81
2024/02/03 07:56:46;;;;;;;;;;;205.00;2252.80;;;;;;5115939;27;19914;-80
2024/02/03 07:59:11;;;;;;;;;;;205.20;2252.80;;;;;;5124825;27;20372;-84
2024/02/03 08:01:37;;;;;;;;;;;205.50;2252.80;;;;;;5125042;27;19916;-82
2024/02/03 08:04:03;;;;;;;;;;;205.70;2252.80;;;;;;5110905;28;19919;-86
2024/02/03 08:06:28;;;;;;;;;;;230.40;2252.80;;;;;;5115108;28;19904;-90
2024/02/03 08:08:54;;;;;;;;;;;230.60;2252.80;;;;;;5111760;27;19914;-91
2024/02/03 08:11:19;;;;;;;;;;;230.50;2252.80;;;;;;5121844;27;19981;-79
2024/02/03 08:13:45;;;;;;;;;;;230.50;2252.80;;;;;;5113696;27;19911;-86
2024/02/03 08:16:11;;;;;;;;;;;230.60;2252.80;;;;;;5106533;27;19957;-85
2024/02/03 08:18:36;;;;;;;;;;;230.60;2252.80;;;;;;5109635;27;20266;-87
2024/02/03 08:21:02;;;;;;;;;;;230.60;2252.80;;;;;;5134257;27;19960;-84
2024/02/03 08:23:28;;;;;;;;;;;230.70;2252.80;;;;;;5109428;28;20014;-86
2024/02/03 08:25:55;;;;;;;;;;;230.80;2252.80;;;;;;5110671;28;19904;-85
2024/02/03 08:28:21;;;;;;;;;;;230.80;2252.80;;;;;;5097844;28;19919;-85
2024/02/03 08:30:46;;;;;;;;;;;230.90;2252.80;;;;;;5097520;28;19907;-85
2024/02/03 08:33:12;;;;;;;;;;;231.00;2252.80;;;;;;5103142;28;19907;-86
2024/02/03 08:35:37;;;;;;;;;;;231.10;2252.80;;;;;;5105203;28;19907;-81
2024/02/03 08:38:03;;;;;;;;;;;231.10;2252.80;;;;;;5110929;28;19904;-86
2024/02/03 08:40:29;;;;;;;;;;;231.20;2252.80;;;;;;5130678;28;19979;-87
2024/02/03 08:42:55;;;;;;;;;;;231.20;2252.80;;;;;;5109229;28;19907;-85
2024/02/03 08:45:20;;;;;;;;;;;231.30;2252.80;;;;;;5109150;28;20002;-84
2024/02/03 08:47:46;;;;;;;;;;;231.30;2252.80;;;;;;5117900;28;20302;-80
2024/02/03 08:50:12;;;;;;;;;;;256.10;2252.80;;;;;;5122194;28;19958;-80
2024/02/03 08:52:37;;;;;;;;;;;256.20;2252.80;;;;;;5121037;28;20368;-79
2024/02/03 08:55:03;;;;;;;;;;;256.40;2252.80;;;;;;5112520;28;19908;-79
2024/02/03 08:57:29;;;;;;;;;;;256.40;2252.80;;;;;;5102589;28;19907;-77
2024/02/03 08:59:54;;;;;;;;;;;256.50;2252.80;;;;;;5104694;28;20010;-76
2024/02/03 09:02:20;;;;;;;;;;;256.70;2252.80;;;;;;5102706;28;19907;-76
2024/02/03 09:04:46;;;;;;;;;;;256.90;2252.80;;;;;;5109259;28;19959;-78
2024/02/03 09:07:11;;;;;;;;;;;281.60;2278.40;;;;;;5118478;28;19908;-77
2024/02/03 09:09:37;;;;;;;;;;;281.60;2278.40;;;;;;5108233;28;19912;-77
2024/02/03 09:12:03;;;;;;;;;;;281.80;2278.40;;;;;;5120310;28;20002;-76
2024/02/03 09:14:29;;;;;;;;;;;281.90;2278.40;;;;;;5101643;28;20292;-77
2024/02/03 09:16:55;;;;;;;;;;;282.00;2278.40;;;;;;5099131;28;19923;-77
2024/02/03 09:19:20;;;;;;;;;;;282.10;2278.40;;;;;;5122753;27;19907;-77
2024/02/03 09:21:47;;;;;;;;;;;282.20;2278.40;;;;;;5102369;28;20281;-77
2024/02/03 09:24:16;;;;;;;;;;;282.30;2278.40;;;;;;5119634;27;19907;-78
2024/02/03 09:26:43;;;;;;;;;;;282.40;2278.40;;;;;;5104982;28;19939;-78
2024/02/03 09:29:08;;;;;;;;;;;307.20;2304.00;;;;;;5116810;27;20406;-76
2024/02/03 09:31:34;;;;;;;;;;;307.20;2304.00;;;;;;5107677;27;19966;-77
2024/02/03 09:34:04;;;;;;;;;;;307.30;2304.00;;;;;;5107292;27;19903;-76
2024/02/03 09:36:30;;;;;;;;;;;307.40;2304.00;;;;;;5123896;27;19904;-79
2024/02/03 09:38:56;;;;;;;;;;;307.60;2304.00;;;;;;5103744;27;20329;-77
2024/02/03 09:41:21;;;;;;;;;;;307.80;2304.00;;;;;;5116894;27;20353;-83
2024/02/03 09:43:48;;;;;;;;;;;308.00;2304.00;;;;;;5110302;27;19908;-78
2024/02/03 09:46:13;;;;;;;;;;;332.80;2329.60;;;;;;5115245;27;19912;-77
2024/02/03 09:48:39;;;;;;;;;;;333.00;2329.60;;;;;;5112062;28;19907;-77
2024/02/03 09:51:05;;;;;;;;;;;333.20;2329.60;;;;;;5104784;27;20500;-78
2024/02/03 09:53:31;;;;;;;;;;;333.30;2329.60;;;;;;5126061;27;19922;-80
2024/02/03 09:55:59;;;;;;;;;;;333.60;2329.60;;;;;;5106824;27;20002;-77
2024/02/03 09:58:25;;;;;;;;;;;358.50;2252.80;;;;;;5110181;27;19990;-77
2024/02/03 10:00:52;;;;;;;;;;;358.60;2227.20;;;;;;5128346;27;19953;-77
2024/02/03 10:03:19;;;;;;;;;;;358.90;2176.00;;;;;;5102601;28;19915;-78
2024/02/03 10:05:44;;;;;;;;;;;359.10;2099.20;;;;;;5123522;27;19908;-78
2024/02/03 10:08:10;;;;;;;;;;;384.00;2048.00;;;;;;5128051;27;20364;-77
2024/02/03 10:10:36;;;;;;;;;;;384.40;2022.40;;;;;;5127271;27;19911;-77
2024/02/03 10:13:03;;;;;;;;;;;384.40;1996.80;;;;;;5110867;27;19923;-76
2024/02/03 10:15:28;;;;;;;;;;;384.70;1971.20;;;;;;5111222;27;19911;-78
2024/02/03 10:18:00;;;;;;;;;;;384.90;1920.00;;;;;;5107455;27;20352;-76
2024/02/03 10:20:26;;;;;;;;;;;384.90;1920.00;;;;;;5105540;27;19911;-76
2024/02/03 10:22:52;;;;;;;;;;;409.90;1920.00;;;;;;5120989;27;19903;-77
2024/02/03 10:25:21;;;;;;;;;;;384.90;1868.80;;;;;;5106253;28;20002;-79
2024/02/03 10:27:46;;;;;;;;;;;409.90;1894.40;;;;;;5132159;27;19938;-77
2024/02/03 10:30:17;;;;;;;;;;;410.30;1868.80;;;;;;5103834;28;19907;-78
2024/02/03 10:32:43;;;;;;;;;;;435.20;1868.80;;;;;;5117465;27;20022;-77
2024/02/03 10:35:09;;;;;;;;;;;435.20;1817.60;;;;;;5128035;27;19946;-77
2024/02/03 10:37:36;;;;;;;;;;;435.20;1817.60;;;;;;5108490;27;19908;-77
2024/02/03 10:40:03;;;;;;;;;;;435.40;1817.60;;;;;;5107914;28;19954;-78
2024/02/03 10:42:33;;;;;;;;;;;435.60;1766.40;;;;;;5115443;27;20364;-76
2024/02/03 10:45:00;;;;;;;;;;;435.60;1766.40;;;;;;5112198;27;19914;-78
2024/02/03 10:47:26;;;;;;;;;;;435.60;1740.80;;;;;;5120752;27;20014;-76
2024/02/03 10:49:52;;;;;;;;;;;435.90;1740.80;;;;;;5126309;27;19956;-77
2024/02/03 10:52:19;;;;;;;;;;;436.00;1715.20;;;;;;5100020;28;19923;-76
2024/02/03 10:54:47;;;;;;;;;;;460.90;1715.20;;;;;;5125710;27;20014;-77
2024/02/03 10:57:12;;;;;;;;;;;436.10;1664.00;;;;;;5104678;27;20306;-77
2024/02/03 10:59:38;;;;;;;;;;;460.80;1689.60;;;;;;5123327;27;19914;-79
2024/02/03 11:02:14;;;;;;;;;;;436.10;1664.00;;;;;;5109284;27;19907;-75
2024/02/03 11:04:41;;;;;;;;;;;436.00;1689.60;;;;;;5122332;27;19920;-78
2024/02/03 11:07:07;;;;;;;;;;;436.10;1689.60;;;;;;5106335;28;19960;-75
2024/02/03 11:09:32;;;;;;;;;;;461.10;1689.60;;;;;;5128737;27;19907;-78
2024/02/03 11:11:58;;;;;;;;;;;461.10;1664.00;;;;;;5099910;28;19911;-78
2024/02/03 11:14:25;;;;;;;;;;;461.10;1664.00;;;;;;5105466;28;20021;-76
2024/02/03 11:16:51;;;;;;;;;;;461.30;1664.00;;;;;;5105126;28;20356;-75
2024/02/03 11:19:17;;;;;;;;;;;461.40;1638.40;;;;;;5101551;28;20025;-76
2024/02/03 11:21:43;;;;;;;;;;;461.30;1638.40;;;;;;5106856;27;20420;-77
2024/02/03 11:24:09;;;;;;;;;;;461.00;1664.00;;;;;;5099267;28;19995;-78
2024/02/03 11:26:35;;;;;;;;;;;461.10;1664.00;;;;;;5124488;27;19998;-77
2024/02/03 11:29:01;;;;;;;;;;;460.90;1664.00;;;;;;5126288;27;20006;-77
2024/02/03 11:31:30;;;;;;;;;;;436.10;1689.60;;;;;;5117748;27;20352;-77
2024/02/03 11:33:56;;;;;;;;;;;461.00;1664.00;;;;;;5104989;27;19907;-76
2024/02/03 11:36:22;;;;;;;;;;;461.10;1689.60;;;;;;5108412;27;19903;-77
2024/02/03 11:38:48;;;;;;;;;;;461.10;1689.60;;;;;;5123039;27;19911;-77
2024/02/03 11:41:14;;;;;;;;;;;461.20;1664.00;;;;;;5110531;27;19962;-77
2024/02/03 11:43:40;;;;;;;;;;;461.30;1664.00;;;;;;5104958;28;19991;-77
2024/02/03 11:46:08;;;;;;;;;;;461.10;1664.00;;;;;;5125893;27;20391;-78
2024/02/03 11:48:35;;;;;;;;;;;461.10;1664.00;;;;;;5121672;27;19914;-74
2024/02/03 11:51:01;;;;;;;;;;;461.10;1664.00;;;;;;5125992;27;20057;-75
2024/02/03 11:53:27;;;;;;;;;;;461.10;1689.60;;;;;;5123915;27;20006;-77
2024/02/03 11:55:54;;;;;;;;;;;461.20;1689.60;;;;;;5110760;28;20364;-76
2024/02/03 11:58:20;;;;;;;;;;;460.80;1689.60;;;;;;5107991;28;20268;-78
2024/02/03 12:00:46;;;;;;;;;;;460.80;1715.20;;;;;;5103320;28;19908;-80
2024/02/03 12:03:12;;;;;;;;;;;461.10;1715.20;;;;;;5105391;27;19914;-79
2024/02/03 12:05:37;;;;;;;;;;;461.10;1715.20;;;;;;5124741;27;19915;-80
2024/02/03 12:08:03;;;;;;;;;;;460.90;1715.20;;;;;;5115506;27;20426;-79
2024/02/03 12:10:29;;;;;;;;;;;436.10;1715.20;;;;;;5108503;28;19907;-78
2024/02/03 12:12:59;;;;;;;;;;;435.90;1740.80;;;;;;5105287;28;19974;-78
2024/02/03 12:15:24;;;;;;;;;;;435.80;1766.40;;;;;;5115048;27;19961;-78
2024/02/03 12:17:50;;;;;;;;;;;436.00;1740.80;;;;;;5108309;28;19916;-78
2024/02/03 12:20:22;;;;;;;;;;;435.90;1766.40;;;;;;5093110;28;19908;-77
2024/02/03 12:22:48;;;;;;;;;;;435.90;1792.00;;;;;;5102643;28;20277;-78
2024/02/03 12:25:14;;;;;;;;;;;435.50;1740.80;;;;;;5096734;28;19908;-77
2024/02/03 12:27:40;;;;;;;;;;;435.90;1792.00;;;;;;5096228;28;19903;-80
2024/02/03 12:30:16;;;;;;;;;;;435.80;1766.40;;;;;;5111739;28;19918;-79
2024/02/03 12:32:41;;;;;;;;;;;435.60;1792.00;;;;;;5118485;28;20352;-78
2024/02/03 12:35:07;;;;;;;;;;;435.60;1792.00;;;;;;5098132;28;19914;-78
2024/02/03 12:37:33;;;;;;;;;;;435.80;1817.60;;;;;;5106050;28;19907;-78
2024/02/03 12:39:59;;;;;;;;;;;435.80;1766.40;;;;;;5110085;28;19930;-78
2024/02/03 12:42:25;;;;;;;;;;;435.50;1792.00;;;;;;5108681;28;19915;-78
2024/02/03 12:44:51;;;;;;;;;;;435.70;1792.00;;;;;;5117632;28;19908;-78
2024/02/03 12:47:17;;;;;;;;;;;435.50;1817.60;;;;;;5117305;28;19907;-79
2024/02/03 12:49:42;;;;;;;;;;;435.40;1843.20;;;;;;5104390;28;19911;-78
2024/02/03 12:52:08;;;;;;;;;;;435.40;1817.60;;;;;;5121029;28;19945;-82
2024/02/03 12:54:33;;;;;;;;;;;435.30;1843.20;;;;;;5119198;27;19916;-77
2024/02/03 12:56:59;;;;;;;;;;;435.20;1868.80;;;;;;5124062;27;19908;-78
2024/02/03 12:59:25;;;;;;;;;;;435.20;1843.20;;;;;;5099777;28;19947;-76
2024/02/03 13:01:50;;;;;;;;;;;435.20;1868.80;;;;;;5134690;27;19936;-77
2024/02/03 13:04:16;;;;;;;;;;;435.20;1894.40;;;;;;5123611;27;19912;-77
2024/02/03 13:06:41;;;;;;;;;;;435.20;1868.80;;;;;;5126593;27;19911;-77
2024/02/03 13:09:11;;;;;;;;;;;435.20;1894.40;;;;;;5125119;27;20042;-83
2024/02/03 13:11:37;;;;;;;;;;;410.40;1894.40;;;;;;5118541;27;19915;-84
2024/02/03 13:14:03;;;;;;;;;;;410.40;1920.00;;;;;;5133019;27;19922;-82
2024/02/03 13:16:30;;;;;;;;;;;410.50;1920.00;;;;;;5125726;27;19998;-82
2024/02/03 13:18:56;;;;;;;;;;;410.30;1945.60;;;;;;5119888;27;19911;-82
2024/02/03 13:21:21;;;;;;;;;;;410.40;1945.60;;;;;;5112293;27;19915;-82
2024/02/03 13:23:47;;;;;;;;;;;410.30;1996.80;;;;;;5115088;27;19907;-82
2024/02/03 13:26:13;;;;;;;;;;;410.20;1996.80;;;;;;5117089;27;19914;-81
2024/02/03 13:28:39;;;;;;;;;;;410.20;1996.80;;;;;;5116873;27;19904;-82
2024/02/03 13:31:04;;;;;;;;;;;410.10;2022.40;;;;;;5104771;27;19949;-81
2024/02/03 13:33:30;;;;;;;;;;;410.00;1996.80;;;;;;5108121;27;20002;-81